createdAt,value
2023-04-07T00:01:57.423Z,13.17
2023-04-07T00:04:25.478Z,12.33
2023-04-07T00:06:53.060Z,11.20
2023-04-07T00:09:20.525Z,10.70
2023-04-07T00:11:48.645Z,11.60
2023-04-07T00:14:17.497Z,11.60
2023-04-07T00:16:44.973Z,12.40
2023-04-07T00:19:12.456Z,12.87
2023-04-07T00:21:39.905Z,12.47
2023-04-07T00:24:07.646Z,12.30
2023-04-07T00:26:35.247Z,12.60
2023-04-07T00:29:02.795Z,12.00
2023-04-07T00:31:31.617Z,11.97
2023-04-07T00:33:59.122Z,12.43
2023-04-07T00:36:27.200Z,12.57
2023-04-07T00:38:54.657Z,13.20
2023-04-07T00:41:22.173Z,11.33
2023-04-07T00:43:51.255Z,11.90
2023-04-07T00:46:19.616Z,12.37
2023-04-07T00:48:48.468Z,11.37
2023-04-07T00:51:16.643Z,11.87
2023-04-07T00:53:44.118Z,12.60
2023-04-07T00:56:11.770Z,12.70
2023-04-07T00:58:39.437Z,12.03
2023-04-07T01:01:10.489Z,12.53
2023-04-07T01:03:44.699Z,12.27
2023-04-07T01:06:17.196Z,12.60
2023-04-07T01:08:51.341Z,12.80
2023-04-07T01:11:25.837Z,11.90
2023-04-07T01:13:54.698Z,11.63
2023-04-07T01:16:26.413Z,12.53
2023-04-07T01:18:57.064Z,11.43
2023-04-07T01:21:28.646Z,11.80
2023-04-07T01:24:07.313Z,13.00
2023-04-07T01:26:34.860Z,12.37
2023-04-07T01:29:12.190Z,12.97
2023-04-07T01:31:42.183Z,12.30
2023-04-07T01:34:11.927Z,10.73
2023-04-07T01:36:39.432Z,12.13
2023-04-07T01:39:07.555Z,12.90
2023-04-07T01:41:35.578Z,11.20
2023-04-07T01:44:03.533Z,10.40
2023-04-07T01:46:31.355Z,11.37
2023-04-07T01:49:00.449Z,10.00
2023-04-07T01:51:29.764Z,11.83
2023-04-07T01:53:57.580Z,11.67
2023-04-07T01:56:25.144Z,12.00
2023-04-07T01:58:52.642Z,12.17
2023-04-07T02:01:20.403Z,11.47
2023-04-07T02:03:50.876Z,11.87
2023-04-07T02:06:23.395Z,12.83
2023-04-07T02:08:53.353Z,12.50
2023-04-07T02:11:22.196Z,12.83
2023-04-07T02:13:52.179Z,12.73
2023-04-07T02:16:19.991Z,13.63
2023-04-07T02:18:48.304Z,11.87
2023-04-07T02:21:16.325Z,13.57
2023-04-07T02:23:45.289Z,13.40
2023-04-07T02:26:12.740Z,13.60
2023-04-07T02:28:40.272Z,13.30
2023-04-07T02:31:07.718Z,14.33
2023-04-07T02:33:35.287Z,13.13
2023-04-07T02:36:02.758Z,14.10
2023-04-07T02:38:30.234Z,12.93
2023-04-07T02:40:59.445Z,12.73
2023-04-07T02:43:26.981Z,13.20
2023-04-07T02:45:55.067Z,13.13
2023-04-07T02:48:22.594Z,12.03
2023-04-07T02:50:51.086Z,12.67
2023-04-07T02:53:18.543Z,12.93
2023-04-07T02:55:46.759Z,13.87
2023-04-07T02:58:15.588Z,12.40
2023-04-07T03:00:43.057Z,11.10
2023-04-07T03:03:10.980Z,11.63
2023-04-07T03:05:38.461Z,11.03
2023-04-07T03:08:06.271Z,11.60
2023-04-07T03:10:33.839Z,11.27
2023-04-07T03:13:01.345Z,11.80
2023-04-07T03:15:30.165Z,11.57
2023-04-07T03:17:57.657Z,10.77
2023-04-07T03:20:25.115Z,12.37
2023-04-07T03:22:52.591Z,10.97
2023-04-07T03:25:20.138Z,11.87
2023-04-07T03:27:47.644Z,11.53
2023-04-07T03:30:15.308Z,11.90
2023-04-07T03:32:44.144Z,11.77
2023-04-07T03:35:12.027Z,11.13
2023-04-07T03:37:39.589Z,12.60
2023-04-07T03:40:07.960Z,12.67
2023-04-07T03:42:35.426Z,12.63
2023-04-07T03:45:02.898Z,11.30
2023-04-07T03:47:30.372Z,13.17
2023-04-07T03:49:59.250Z,11.40
2023-04-07T03:52:26.727Z,12.10
2023-04-07T03:54:54.187Z,11.43
2023-04-07T03:57:21.749Z,12.23
2023-04-07T03:59:51.125Z,10.90
2023-04-07T04:02:18.807Z,12.73
2023-04-07T04:04:46.383Z,12.60
2023-04-07T04:07:15.284Z,12.40
2023-04-07T04:09:42.847Z,13.63
2023-04-07T04:12:10.540Z,11.67
2023-04-07T04:14:38.048Z,10.40
2023-04-07T04:17:05.810Z,9.27
2023-04-07T04:19:33.372Z,11.77
2023-04-07T04:22:00.839Z,11.60
2023-04-07T04:24:29.616Z,12.00
2023-04-07T04:26:57.674Z,10.60
2023-04-07T04:29:25.313Z,9.70
2023-04-07T04:31:52.734Z,10.10
2023-04-07T04:34:20.331Z,11.60
2023-04-07T04:36:49.073Z,10.93
2023-04-07T04:39:16.630Z,11.37
2023-04-07T04:41:46.002Z,11.50
2023-04-07T04:44:13.453Z,11.73
2023-04-07T04:46:40.993Z,12.20
2023-04-07T04:49:08.488Z,10.80
2023-04-07T04:51:35.966Z,11.33
2023-04-07T04:54:03.908Z,10.77
2023-04-07T04:56:31.979Z,11.17
2023-04-07T04:59:00.967Z,10.80
2023-04-07T05:01:28.529Z,11.60
2023-04-07T05:03:56.590Z,10.87
2023-04-07T05:06:24.341Z,12.37
2023-04-07T05:08:51.793Z,12.10
2023-04-07T05:11:19.241Z,11.00
2023-04-07T05:13:46.705Z,11.20
2023-04-07T05:16:15.554Z,12.00
2023-04-07T05:18:43.118Z,10.97
2023-04-07T05:21:10.944Z,12.30
2023-04-07T05:23:38.443Z,11.80
2023-04-07T05:26:06.437Z,11.50
2023-04-07T05:28:33.898Z,11.30
2023-04-07T05:31:02.105Z,10.17
2023-04-07T05:33:30.887Z,11.93
2023-04-07T05:36:00.216Z,11.37
2023-04-07T05:38:27.810Z,11.90
2023-04-07T05:40:55.274Z,10.67
2023-04-07T05:43:22.829Z,11.00
2023-04-07T05:45:50.529Z,9.43
2023-04-07T05:48:18.077Z,10.63
2023-04-07T05:50:47.004Z,11.70
2023-04-07T05:53:14.491Z,10.90
2023-04-07T05:55:43.304Z,10.43
2023-04-07T05:58:11.113Z,11.50
2023-04-07T06:00:38.652Z,12.00
2023-04-07T06:03:06.211Z,11.80
2023-04-07T06:05:34.698Z,10.33
2023-04-07T06:08:03.570Z,11.20
2023-04-07T06:10:31.782Z,11.67
2023-04-07T06:12:59.202Z,8.93
2023-04-07T06:15:26.668Z,10.87
2023-04-07T06:17:54.124Z,10.80
2023-04-07T06:20:22.924Z,12.40
2023-04-07T06:22:50.660Z,11.50
2023-04-07T06:25:19.645Z,10.37
2023-04-07T06:27:47.117Z,10.73
2023-04-07T06:30:15.365Z,10.87
2023-04-07T06:32:42.878Z,11.70
2023-04-07T06:35:10.556Z,12.10
2023-04-07T06:37:39.204Z,11.80
2023-04-07T06:40:08.242Z,11.33
2023-04-07T06:42:37.044Z,11.13
2023-04-07T06:45:04.764Z,10.97
2023-04-07T06:47:32.244Z,12.30
2023-04-07T06:49:59.814Z,11.27
2023-04-07T06:52:27.257Z,10.80
2023-04-07T06:54:54.993Z,10.60
2023-04-07T06:57:22.465Z,11.20
2023-04-07T06:59:51.274Z,12.87
2023-04-07T07:02:18.872Z,12.20
2023-04-07T07:04:46.481Z,11.70
2023-04-07T07:07:14.181Z,11.33
2023-04-07T07:09:41.662Z,12.73
2023-04-07T07:12:09.103Z,14.13
2023-04-07T07:14:36.554Z,13.00
2023-04-07T07:17:05.405Z,11.80
2023-04-07T07:19:32.872Z,12.10
2023-04-07T07:22:00.355Z,12.30
2023-04-07T07:24:29.142Z,13.67
2023-04-07T07:26:56.683Z,12.00
2023-04-07T07:29:24.243Z,14.50
2023-04-07T07:31:51.744Z,12.00
2023-04-07T07:34:20.954Z,12.20
2023-04-07T07:36:48.448Z,12.53
2023-04-07T07:39:15.958Z,14.60
2023-04-07T07:41:43.459Z,13.73
2023-04-07T07:44:10.998Z,11.50
2023-04-07T07:46:38.584Z,13.37
2023-04-07T07:49:06.153Z,11.07
2023-04-07T07:51:35.570Z,12.43
2023-04-07T07:54:03.063Z,12.13
2023-04-07T07:56:30.569Z,11.67
2023-04-07T07:58:58.446Z,13.43
2023-04-07T08:01:26.014Z,12.87
2023-04-07T08:03:53.746Z,12.67
2023-04-07T08:06:21.891Z,12.33
2023-04-07T08:08:51.414Z,12.87
2023-04-07T08:11:18.872Z,15.43
2023-04-07T08:13:46.514Z,13.03
2023-04-07T08:16:14.427Z,13.77
2023-04-07T08:18:42.094Z,14.63
2023-04-07T08:21:09.582Z,14.53
2023-04-07T08:23:37.083Z,13.97
2023-04-07T08:26:06.021Z,14.50
2023-04-07T08:28:33.471Z,15.23
2023-04-07T08:31:00.929Z,14.53
2023-04-07T08:33:28.397Z,14.20
2023-04-07T08:35:55.875Z,15.77
2023-04-07T08:38:23.410Z,15.57
2023-04-07T08:40:56.115Z,14.50
2023-04-07T08:43:26.454Z,14.57
2023-04-07T08:45:55.277Z,14.67
2023-04-07T08:48:26.672Z,15.07
2023-04-07T08:50:55.133Z,15.33
2023-04-07T08:53:27.960Z,20.60
2023-04-07T08:55:56.267Z,13.73
2023-04-07T08:58:25.104Z,14.30
2023-04-07T09:00:52.737Z,14.37
2023-04-07T09:03:20.560Z,12.53
2023-04-07T09:05:48.416Z,15.30
2023-04-07T09:08:15.878Z,14.50
2023-04-07T09:10:43.389Z,14.27
2023-04-07T09:13:10.886Z,14.60
2023-04-07T09:15:41.332Z,14.70
2023-04-07T09:18:08.808Z,17.30
2023-04-07T09:20:56.840Z,16.60
2023-04-07T09:23:31.905Z,17.17
2023-04-07T09:26:01.472Z,16.33
2023-04-07T09:28:42.868Z,14.93
2023-04-07T09:31:11.726Z,18.20
2023-04-07T09:33:39.298Z,14.53
2023-04-07T09:36:07.860Z,14.83
2023-04-07T09:38:36.583Z,15.87
2023-04-07T09:41:08.645Z,16.20
2023-04-07T09:43:37.938Z,14.70
2023-04-07T09:46:14.933Z,13.20
2023-04-07T09:48:43.669Z,13.57
2023-04-07T09:51:12.593Z,13.77
2023-04-07T09:53:48.760Z,12.80
2023-04-07T09:56:17.496Z,15.40
2023-04-07T09:58:47.078Z,15.87
2023-04-07T10:01:17.918Z,13.70
2023-04-07T10:03:46.628Z,13.13
2023-04-07T10:06:14.731Z,13.80
2023-04-07T10:08:43.669Z,14.73
2023-04-07T10:11:11.998Z,14.90
2023-04-07T10:13:42.939Z,14.00
2023-04-07T10:16:10.450Z,14.20
2023-04-07T10:18:40.368Z,15.20
2023-04-07T10:21:09.228Z,15.40
2023-04-07T10:23:44.921Z,13.17
2023-04-07T10:26:13.238Z,15.07
2023-04-07T10:28:42.542Z,13.03
2023-04-07T10:31:10.849Z,14.13
2023-04-07T10:33:47.920Z,15.00
2023-04-07T10:36:15.784Z,13.03
2023-04-07T10:38:43.486Z,13.23
2023-04-07T10:41:33.061Z,12.40
2023-04-07T10:44:00.524Z,12.47
2023-04-07T10:47:05.687Z,13.53
2023-04-07T10:49:35.003Z,11.50
2023-04-07T10:52:23.027Z,11.97
2023-04-07T10:55:37.483Z,11.67
2023-04-07T10:58:18.816Z,13.50
2023-04-07T11:01:20.569Z,13.60
2023-04-07T11:03:57.026Z,13.10
2023-04-07T11:06:27.141Z,12.50
2023-04-07T11:08:54.748Z,12.07
2023-04-07T11:11:38.271Z,12.37
2023-04-07T11:14:06.137Z,13.13
2023-04-07T11:16:38.454Z,10.33
2023-04-07T11:19:05.907Z,10.17
2023-04-07T11:21:34.995Z,10.90
2023-04-07T11:24:02.484Z,10.93
2023-04-07T11:26:30.980Z,12.00
2023-04-07T11:28:59.281Z,12.43
2023-04-07T11:31:27.794Z,10.70
2023-04-07T11:33:56.646Z,10.93
2023-04-07T11:36:32.246Z,12.67
2023-04-07T11:39:02.157Z,10.67
2023-04-07T11:41:32.613Z,10.70
2023-04-07T11:44:07.191Z,11.70
2023-04-07T11:46:35.138Z,11.27
2023-04-07T11:49:14.295Z,10.57
2023-04-07T11:51:46.067Z,11.60
2023-04-07T11:54:15.910Z,11.50
2023-04-07T11:56:45.577Z,10.63
2023-04-07T11:59:22.652Z,9.87
2023-04-07T12:01:50.861Z,10.63
2023-04-07T12:04:18.974Z,9.60
2023-04-07T12:06:48.168Z,9.77
2023-04-07T12:09:30.741Z,11.07
2023-04-07T12:11:58.723Z,9.60
2023-04-07T12:14:27.542Z,9.50
2023-04-07T12:16:56.645Z,9.63
2023-04-07T12:19:24.473Z,7.77
2023-04-07T12:21:52.140Z,8.10
2023-04-07T12:24:19.638Z,8.30
2023-04-07T12:26:49.115Z,8.57
2023-04-07T12:29:17.464Z,8.60
2023-04-07T12:31:45.547Z,8.17
2023-04-07T12:34:13.122Z,8.60
2023-04-07T12:36:40.595Z,7.90
2023-04-07T12:39:08.050Z,8.07
2023-04-07T12:41:36.006Z,7.80
2023-04-07T12:44:04.788Z,8.87
2023-04-07T12:46:32.390Z,8.07
2023-04-07T12:49:00.228Z,8.20
2023-04-07T12:51:28.376Z,7.30
2023-04-07T12:53:55.867Z,7.30
2023-04-07T12:56:24.095Z,7.23
2023-04-07T12:58:51.551Z,6.90
2023-04-07T13:01:20.372Z,6.50
2023-04-07T13:03:48.269Z,7.40
2023-04-07T13:06:16.006Z,7.80
2023-04-07T13:08:43.465Z,7.40
2023-04-07T13:11:10.962Z,7.13
2023-04-07T13:13:38.410Z,6.70
2023-04-07T13:16:06.305Z,6.20
2023-04-07T13:18:35.292Z,6.47
2023-04-07T13:21:22.149Z,7.00
2023-04-07T13:23:51.532Z,6.93
2023-04-07T13:26:19.056Z,5.80
2023-04-07T13:28:47.869Z,5.77
2023-04-07T13:31:16.151Z,5.00
2023-04-07T13:33:45.300Z,4.70
2023-04-07T13:36:12.852Z,4.30
2023-04-07T13:38:42.268Z,5.50
2023-04-07T13:41:09.837Z,4.90
2023-04-07T13:43:37.289Z,4.77
2023-04-07T13:46:07.816Z,4.13
2023-04-07T13:48:39.530Z,4.70
2023-04-07T13:51:08.336Z,3.50
2023-04-07T13:53:35.835Z,3.47
2023-04-07T13:56:03.508Z,3.20
2023-04-07T13:58:32.009Z,2.97
2023-04-07T14:00:59.661Z,2.27
2023-04-07T14:03:27.791Z,2.50
2023-04-07T14:05:55.305Z,2.80
2023-04-07T14:08:24.408Z,4.47
2023-04-07T14:10:52.228Z,3.97
2023-04-07T14:13:19.679Z,2.73
2023-04-07T14:15:47.355Z,2.93
2023-04-07T14:18:14.909Z,3.10
2023-04-07T14:20:42.360Z,3.93
2023-04-07T14:23:09.781Z,3.30
2023-04-07T14:25:38.584Z,2.80
2023-04-07T14:28:06.326Z,3.47
2023-04-07T14:30:38.118Z,2.97
2023-04-07T14:33:06.302Z,3.10
2023-04-07T14:35:33.841Z,3.53
2023-04-07T14:38:01.366Z,3.23
2023-04-07T14:40:28.945Z,3.40
2023-04-07T14:45:29.328Z,4.57
2023-04-07T14:47:56.967Z,4.70
2023-04-07T14:50:24.699Z,4.30
2023-04-07T14:52:53.344Z,3.20
2023-04-07T14:55:20.965Z,3.40
2023-04-07T14:57:48.440Z,2.97
2023-04-07T15:00:17.819Z,3.17
2023-04-07T15:02:45.561Z,3.27
2023-04-07T15:05:13.560Z,4.30
2023-04-07T15:07:41.104Z,4.23
2023-04-07T15:10:09.259Z,3.57
2023-04-07T15:12:36.740Z,3.00
2023-04-07T15:15:04.589Z,3.00
2023-04-07T15:17:42.842Z,1.97
2023-04-07T15:20:12.804Z,1.40
2023-04-07T15:22:40.468Z,1.60
2023-04-07T15:25:08.848Z,1.90
2023-04-07T15:27:36.410Z,2.00
2023-04-07T15:30:04.180Z,3.23
2023-04-07T15:32:33.015Z,2.40
2023-04-07T15:35:00.774Z,2.10
2023-04-07T15:37:28.269Z,2.73
2023-04-07T15:39:55.936Z,1.97
2023-04-07T15:42:23.420Z,2.40
2023-04-07T15:44:51.152Z,1.93
2023-04-07T15:47:18.596Z,3.37
2023-04-07T15:49:47.387Z,4.00
2023-04-07T15:52:14.962Z,2.40
2023-04-07T15:54:42.446Z,2.00
2023-04-07T15:57:09.970Z,1.77
2023-04-07T15:59:37.530Z,1.70
2023-04-07T16:02:05.178Z,1.50
2023-04-07T16:04:32.683Z,2.63
2023-04-07T16:07:01.881Z,1.77
2023-04-07T16:09:29.703Z,1.50
2023-04-07T16:11:57.417Z,1.53
2023-04-07T16:14:28.780Z,1.77
2023-04-07T16:16:58.671Z,2.00
2023-04-07T16:19:26.622Z,1.57
2023-04-07T16:21:54.669Z,2.40
2023-04-07T16:24:23.551Z,1.00
2023-04-07T16:26:52.304Z,1.67
2023-04-07T16:29:20.394Z,2.50
2023-04-07T16:31:47.902Z,2.03
2023-04-07T16:34:15.645Z,1.50
2023-04-07T16:36:43.104Z,2.00
2023-04-07T16:39:10.651Z,1.30
2023-04-07T16:41:39.460Z,2.37
2023-04-07T16:44:07.130Z,3.20
2023-04-07T16:46:34.609Z,2.03
2023-04-07T16:49:03.204Z,2.20
2023-04-07T16:51:31.740Z,2.50
2023-04-07T16:53:59.194Z,2.23
2023-04-07T16:56:26.813Z,1.97
2023-04-07T16:58:56.250Z,2.40
2023-04-07T17:01:23.796Z,1.40
2023-04-07T17:03:52.544Z,1.77
2023-04-07T17:06:20.301Z,1.50
2023-04-07T17:08:48.741Z,1.53
2023-04-07T17:11:16.258Z,1.40
2023-04-07T17:13:43.736Z,1.60
2023-04-07T17:16:14.594Z,2.50
2023-04-07T17:18:42.129Z,2.03
2023-04-07T17:21:09.833Z,0.90
2023-04-07T17:23:37.353Z,1.60
2023-04-07T17:26:04.947Z,1.37
2023-04-07T17:28:32.496Z,1.40
2023-04-07T17:31:00.081Z,1.40
2023-04-07T17:33:30.682Z,0.93
2023-04-07T17:35:58.294Z,0.70
2023-04-07T17:38:25.942Z,2.30
2023-04-07T17:40:58.224Z,3.50
2023-04-07T17:43:26.037Z,3.60
2023-04-07T17:45:53.582Z,1.97
2023-04-07T17:48:21.433Z,2.50
2023-04-07T17:50:50.548Z,2.37
2023-04-07T17:53:18.099Z,3.80
2023-04-07T17:55:45.700Z,3.63
2023-04-07T17:58:13.266Z,3.20
2023-04-07T18:00:41.296Z,4.57
2023-04-07T18:03:09.060Z,3.60
2023-04-07T18:05:37.147Z,5.17
2023-04-07T18:08:06.346Z,3.30
2023-04-07T18:10:33.886Z,2.73
2023-04-07T18:13:02.991Z,3.83
2023-04-07T18:15:30.539Z,3.77
2023-04-07T18:17:58.350Z,5.40
2023-04-07T18:20:25.831Z,4.77
2023-04-07T18:22:53.458Z,8.37
2023-04-07T18:25:23.130Z,5.20
2023-04-07T18:27:50.808Z,6.50
2023-04-07T18:30:18.329Z,4.23
2023-04-07T18:32:46.211Z,2.90
2023-04-07T18:35:13.798Z,4.77
2023-04-07T18:37:44.003Z,10.03
2023-04-07T18:40:12.554Z,13.50
2023-04-07T18:42:41.409Z,6.97
2023-04-07T18:45:09.581Z,5.90
2023-04-07T18:47:37.104Z,6.57
2023-04-07T18:50:05.357Z,5.93
2023-04-07T18:52:32.865Z,3.63
2023-04-07T18:55:00.343Z,3.80
2023-04-07T18:57:28.101Z,3.30
2023-04-07T18:59:56.946Z,2.83
2023-04-07T19:02:24.558Z,3.40
2023-04-07T19:04:52.126Z,1.80
2023-04-07T19:07:19.615Z,3.23
2023-04-07T19:09:51.084Z,3.87
2023-04-07T19:12:18.536Z,5.13
2023-04-07T19:14:45.998Z,7.40
2023-04-07T19:17:14.800Z,11.40
2023-04-07T19:19:42.349Z,14.60
2023-04-07T19:22:09.833Z,12.97
2023-04-07T19:24:37.436Z,7.50
2023-04-07T19:27:05.102Z,4.20
2023-04-07T19:29:32.981Z,3.57
2023-04-07T19:32:00.583Z,2.43
2023-04-07T19:34:29.527Z,2.47
2023-04-07T19:36:57.185Z,3.13
2023-04-07T19:39:25.107Z,4.53
2023-04-07T19:41:52.636Z,3.20
2023-04-07T19:44:20.116Z,4.57
2023-04-07T19:46:48.623Z,3.60
2023-04-07T19:49:16.110Z,3.00
2023-04-07T19:51:44.949Z,2.93
2023-04-07T19:54:12.446Z,2.97
2023-04-07T19:56:39.992Z,2.27
2023-04-07T19:59:08.175Z,1.50
2023-04-07T20:01:35.732Z,1.97
2023-04-07T20:04:03.578Z,1.80
2023-04-07T20:06:32.961Z,1.50
2023-04-07T20:09:02.682Z,1.80
2023-04-07T20:11:30.175Z,1.73
2023-04-07T20:13:57.682Z,1.63
2023-04-07T20:16:25.558Z,1.70
2023-04-07T20:18:53.041Z,1.67
2023-04-07T20:21:20.516Z,1.73
2023-04-07T20:23:51.383Z,2.13
2023-04-07T20:26:21.939Z,2.00
2023-04-07T20:28:49.583Z,1.90
2023-04-07T20:31:18.295Z,1.83
2023-04-07T20:33:45.926Z,1.90
2023-04-07T20:36:13.508Z,2.40
2023-04-07T20:38:43.559Z,1.87
2023-04-07T20:41:12.196Z,2.17
2023-04-07T20:43:41.058Z,2.10
2023-04-07T20:46:08.598Z,2.80
2023-04-07T20:48:36.323Z,3.00
2023-04-07T20:51:03.861Z,2.80
2023-04-07T20:53:31.337Z,2.40
2023-04-07T20:55:59.028Z,2.80
2023-04-07T20:58:26.618Z,2.43
2023-04-07T21:00:57.956Z,3.03
2023-04-07T21:03:26.668Z,2.77
2023-04-07T21:05:54.707Z,2.53
2023-04-07T21:08:23.316Z,2.43
2023-04-07T21:10:52.288Z,1.40
2023-04-07T21:13:21.025Z,1.63
2023-04-07T21:15:48.514Z,3.00
2023-04-07T21:18:18.838Z,1.90
2023-04-07T21:20:47.218Z,1.53
2023-04-07T21:23:14.698Z,2.10
2023-04-07T21:25:42.173Z,1.80
2023-04-07T21:28:09.705Z,1.30
2023-04-07T21:30:41.292Z,1.40
2023-04-07T21:33:08.937Z,1.70
2023-04-07T21:35:38.141Z,2.23
2023-04-07T21:38:05.837Z,1.67
2023-04-07T21:40:33.306Z,1.70
2023-04-07T21:43:00.781Z,1.67
2023-04-07T21:45:29.526Z,1.97
2023-04-07T21:47:57.215Z,1.47
2023-04-07T21:50:25.375Z,1.47
2023-04-07T21:52:54.256Z,1.50
2023-04-07T21:55:21.792Z,1.23
2023-04-07T21:57:50.055Z,1.50
2023-04-07T22:00:17.763Z,1.47
2023-04-07T22:02:45.659Z,1.20
2023-04-07T22:05:13.560Z,1.30
2023-04-07T22:07:41.082Z,1.80
2023-04-07T22:10:11.526Z,1.43
2023-04-07T22:12:39.093Z,1.70
2023-04-07T22:15:07.498Z,2.10
2023-04-07T22:17:35.443Z,1.63
2023-04-07T22:20:03.217Z,1.47
2023-04-07T22:22:30.919Z,1.77
2023-04-07T22:24:58.419Z,1.63
2023-04-07T22:27:27.726Z,1.90
2023-04-07T22:29:55.573Z,1.30
2023-04-07T22:32:23.105Z,1.70
2023-04-07T22:34:50.828Z,1.90
2023-04-07T22:37:19.227Z,1.90
2023-04-07T22:39:46.901Z,1.47
2023-04-07T22:42:14.502Z,1.60
2023-04-07T22:44:43.346Z,1.40
2023-04-07T22:47:10.911Z,1.43
2023-04-07T22:49:38.384Z,1.47
2023-04-07T22:52:06.244Z,1.50
2023-04-07T22:54:33.762Z,3.33
2023-04-07T22:57:01.710Z,1.77
2023-04-07T22:59:29.291Z,1.63
2023-04-07T23:01:58.433Z,2.07
2023-04-07T23:04:26.104Z,1.60
2023-04-07T23:06:53.803Z,2.00
2023-04-07T23:09:21.277Z,1.87
2023-04-07T23:11:48.815Z,1.57
2023-04-07T23:14:16.368Z,1.50
2023-04-07T23:16:43.897Z,1.57
2023-04-07T23:19:15.675Z,1.57
2023-04-07T23:21:43.411Z,1.60
2023-04-07T23:24:11.047Z,1.30
2023-04-07T23:26:38.794Z,1.70
2023-04-07T23:29:06.530Z,1.50
2023-04-07T23:31:34.034Z,1.20
2023-04-07T23:34:02.315Z,1.80
2023-04-07T23:36:31.456Z,1.73
2023-04-07T23:39:00.651Z,1.50
2023-04-07T23:41:28.108Z,1.60
2023-04-07T23:43:55.813Z,1.80
2023-04-07T23:46:24.407Z,1.47
2023-04-07T23:48:52.133Z,1.73
2023-04-07T23:51:20.371Z,2.20
2023-04-07T23:53:52.166Z,1.50
2023-04-07T23:56:19.633Z,1.70
2023-04-07T23:58:47.103Z,1.80
